Time;durP1;ratioP1;P1;durP2;ratioP2;P2;SDS_P1;SDS_P2;PMS_P1;PMS_P2;Temp;Humidity;BMP_temperature;BMP_pressure;BME280_temperature;BME280_humidity;BME280_pressure;Samples;Min_cycle;Max_cycle;Signal;HPM_P1;HPM_P2
2023/09/04 00:00:00;;;;;;;4.70;2.90;;;;;;;;;;108020;293;38796;-43
2023/09/04 00:02:34;;;;;;;6.40;3.20;;;;;;;;;;108035;293;39601;-43
2023/09/04 00:05:09;;;;;;;5.10;3.00;;;;;;;;;;108069;293;42837;-43
2023/09/04 00:07:42;;;;;;;5.00;2.80;;;;;;;;;;108001;293;42074;-43
2023/09/04 00:10:16;;;;;;;4.50;2.70;;;;;;;;;;108015;293;39073;-43
2023/09/04 00:12:49;;;;;;;5.10;2.80;;;;;;;;;;108080;293;39583;-43
2023/09/04 00:15:23;;;;;;;4.90;2.70;;;;;;;;;;108036;293;42725;-42
2023/09/04 00:17:56;;;;;;;5.30;3.10;;;;;;;;;;107993;293;43421;-43
2023/09/04 00:20:29;;;;;;;5.40;3.00;;;;;;;;;;108049;293;38759;-43
2023/09/04 00:23:02;;;;;;;5.00;2.90;;;;;;;;;;108015;293;39846;-43
2023/09/04 00:25:38;;;;;;;4.90;2.90;;;;;;;;;;108042;293;42848;-43
2023/09/04 00:28:13;;;;;;;5.30;2.80;;;;;;;;;;108000;293;42011;-43
2023/09/04 00:30:47;;;;;;;5.00;3.00;;;;;;;;;;108012;293;39982;-42
2023/09/04 00:33:21;;;;;;;4.90;2.80;;;;;;;;;;108076;293;40798;-42
2023/09/04 00:35:54;;;;;;;5.00;2.80;;;;;;;;;;107998;293;42651;-43
2023/09/04 00:38:27;;;;;;;4.80;2.60;;;;;;;;;;107960;293;42187;-43
2023/09/04 00:41:02;;;;;;;4.90;2.80;;;;;;;;;;108044;293;38713;-43
2023/09/04 00:43:40;;;;;;;5.90;3.10;;;;;;;;;;108028;293;39922;-43
2023/09/04 00:46:16;;;;;;;5.40;2.90;;;;;;;;;;108028;293;42787;-43
2023/09/04 00:48:50;;;;;;;4.80;2.80;;;;;;;;;;107959;293;43333;-42
2023/09/04 00:51:25;;;;;;;4.90;2.90;;;;;;;;;;108013;293;39825;-43
2023/09/04 00:54:00;;;;;;;4.50;2.80;;;;;;;;;;107988;293;39670;-43
2023/09/04 00:56:34;;;;;;;4.60;2.90;;;;;;;;;;108065;293;42830;-43
2023/09/04 00:59:07;;;;;;;5.10;2.90;;;;;;;;;;107860;293;201335;-43
2023/09/04 01:01:42;;;;;;;4.60;2.80;;;;;;;;;;107973;293;38806;-42
2023/09/04 01:04:15;;;;;;;4.80;2.90;;;;;;;;;;107965;293;40967;-43
2023/09/04 01:06:48;;;;;;;4.70;2.80;;;;;;;;;;107939;293;42863;-43
2023/09/04 01:09:26;;;;;;;4.40;2.80;;;;;;;;;;107853;290;201250;-44
2023/09/04 01:12:07;;;;;;;5.50;3.10;;;;;;;;;;107951;293;38671;-43
2023/09/04 01:14:41;;;;;;;5.10;2.70;;;;;;;;;;108011;293;39392;-43
2023/09/04 01:17:17;;;;;;;4.60;2.70;;;;;;;;;;107937;293;43901;-43
2023/09/04 01:19:51;;;;;;;4.80;2.80;;;;;;;;;;107954;293;48104;-43
2023/09/04 01:22:24;;;;;;;4.70;2.90;;;;;;;;;;107999;293;38857;-42
2023/09/04 01:24:58;;;;;;;5.20;2.80;;;;;;;;;;107926;293;39707;-43
2023/09/04 01:27:32;;;;;;;4.80;2.60;;;;;;;;;;107927;293;42958;-43
2023/09/04 01:30:14;;;;;;;4.50;2.80;;;;;;;;;;107966;293;49485;-43
2023/09/04 01:32:52;;;;;;;4.80;2.70;;;;;;;;;;107955;293;38717;-43
2023/09/04 01:35:28;;;;;;;4.60;2.80;;;;;;;;;;107977;293;39670;-43
2023/09/04 01:38:05;;;;;;;4.70;2.70;;;;;;;;;;107991;293;42774;-43
2023/09/04 01:40:39;;;;;;;4.50;3.00;;;;;;;;;;108098;293;42229;-43
2023/09/04 01:43:12;;;;;;;4.40;2.60;;;;;;;;;;108058;293;38512;-43
2023/09/04 01:45:45;;;;;;;4.70;2.80;;;;;;;;;;108049;293;39637;-42
2023/09/04 01:48:18;;;;;;;4.50;2.80;;;;;;;;;;107998;293;42972;-42
2023/09/04 01:50:54;;;;;;;4.50;2.70;;;;;;;;;;108040;293;42177;-42
2023/09/04 01:53:28;;;;;;;4.40;2.40;;;;;;;;;;108136;293;38683;-42
2023/09/04 01:56:02;;;;;;;4.50;2.70;;;;;;;;;;108058;293;40691;-43
2023/09/04 01:58:35;;;;;;;4.70;3.00;;;;;;;;;;108007;293;42800;-42
2023/09/04 02:01:08;;;;;;;4.70;2.70;;;;;;;;;;108034;293;42247;-42
2023/09/04 02:03:44;;;;;;;4.60;2.50;;;;;;;;;;107968;294;39980;-42
2023/09/04 02:06:19;;;;;;;4.60;2.60;;;;;;;;;;107985;294;40685;-42
2023/09/04 02:08:55;;;;;;;4.60;2.50;;;;;;;;;;107913;294;42963;-42
2023/09/04 02:11:28;;;;;;;5.50;2.80;;;;;;;;;;107956;294;42035;-42
2023/09/04 02:14:02;;;;;;;4.80;2.80;;;;;;;;;;107948;294;38883;-42
2023/09/04 02:16:35;;;;;;;4.40;2.60;;;;;;;;;;107926;294;39672;-42
2023/09/04 02:19:09;;;;;;;3.80;2.40;;;;;;;;;;107911;294;42870;-42
2023/09/04 02:21:43;;;;;;;5.30;2.90;;;;;;;;;;107931;294;41802;-42
2023/09/04 02:24:17;;;;;;;4.30;2.60;;;;;;;;;;107931;294;38881;-42
2023/09/04 02:26:51;;;;;;;4.10;2.50;;;;;;;;;;107927;294;39677;-42
2023/09/04 02:29:26;;;;;;;4.90;2.80;;;;;;;;;;107911;294;43034;-42
2023/09/04 02:32:01;;;;;;;4.80;2.90;;;;;;;;;;107972;294;41800;-42
2023/09/04 02:34:34;;;;;;;4.70;2.70;;;;;;;;;;107907;294;38506;-42
2023/09/04 02:37:07;;;;;;;4.70;2.70;;;;;;;;;;107923;294;39648;-42
2023/09/04 02:39:43;;;;;;;4.60;2.60;;;;;;;;;;107883;294;42848;-42
2023/09/04 02:42:20;;;;;;;4.00;2.40;;;;;;;;;;107914;294;42208;-42
2023/09/04 02:44:54;;;;;;;4.30;2.60;;;;;;;;;;107948;294;38726;-42
2023/09/04 02:47:27;;;;;;;4.70;2.70;;;;;;;;;;107939;294;39843;-42
2023/09/04 02:50:01;;;;;;;5.30;2.90;;;;;;;;;;107885;294;42944;-42
2023/09/04 02:52:35;;;;;;;4.80;2.70;;;;;;;;;;107930;294;43352;-42
2023/09/04 02:55:12;;;;;;;4.70;2.60;;;;;;;;;;107954;294;38688;-42
2023/09/04 02:57:45;;;;;;;4.80;2.80;;;;;;;;;;107941;294;39643;-41
2023/09/04 03:00:19;;;;;;;4.60;2.60;;;;;;;;;;107912;294;42877;-42
2023/09/04 03:02:56;;;;;;;4.90;2.70;;;;;;;;;;107899;294;42247;-42
2023/09/04 03:05:32;;;;;;;4.90;2.80;;;;;;;;;;107939;294;38473;-42
2023/09/04 03:08:07;;;;;;;4.40;2.70;;;;;;;;;;107962;294;39594;-42
2023/09/04 03:10:41;;;;;;;4.60;2.70;;;;;;;;;;108005;294;42977;-42
2023/09/04 03:13:14;;;;;;;4.30;2.70;;;;;;;;;;108062;293;41882;-42
2023/09/04 03:15:47;;;;;;;5.30;2.80;;;;;;;;;;108085;293;38759;-42
2023/09/04 03:18:21;;;;;;;4.30;2.50;;;;;;;;;;108034;293;39523;-42
2023/09/04 03:20:55;;;;;;;5.00;2.70;;;;;;;;;;108031;293;43025;-42
2023/09/04 03:23:30;;;;;;;5.00;2.70;;;;;;;;;;108042;293;42061;-41
2023/09/04 03:26:03;;;;;;;5.00;2.70;;;;;;;;;;108086;293;38584;-42
2023/09/04 03:28:37;;;;;;;6.00;2.80;;;;;;;;;;108072;293;40055;-43
2023/09/04 03:31:17;;;;;;;4.80;2.60;;;;;;;;;;107998;293;42824;-43
2023/09/04 03:33:50;;;;;;;6.60;2.80;;;;;;;;;;107982;293;43280;-42
2023/09/04 03:36:23;;;;;;;5.70;2.80;;;;;;;;;;108064;293;39984;-42
2023/09/04 03:38:57;;;;;;;5.50;2.80;;;;;;;;;;108049;293;39784;-42
2023/09/04 03:41:31;;;;;;;4.70;2.50;;;;;;;;;;108021;293;43993;-42
2023/09/04 03:44:04;;;;;;;5.70;2.50;;;;;;;;;;108037;293;43442;-40
2023/09/04 03:46:38;;;;;;;5.20;2.80;;;;;;;;;;108045;293;38726;-42
2023/09/04 03:49:13;;;;;;;5.00;2.60;;;;;;;;;;108044;293;40899;-43
2023/09/04 03:51:46;;;;;;;5.00;2.70;;;;;;;;;;108033;293;42978;-42
2023/09/04 03:54:19;;;;;;;5.20;2.80;;;;;;;;;;108084;293;42165;-42
2023/09/04 03:56:54;;;;;;;4.70;2.50;;;;;;;;;;107941;293;175582;-43
2023/09/04 03:59:30;;;;;;;5.40;2.60;;;;;;;;;;108040;293;39583;-42
2023/09/04 04:02:06;;;;;;;5.00;2.50;;;;;;;;;;107992;293;42832;-42
2023/09/04 04:04:40;;;;;;;6.60;2.70;;;;;;;;;;108090;293;41815;-41
2023/09/04 04:07:14;;;;;;;4.70;2.60;;;;;;;;;;108050;293;38683;-41
2023/09/04 04:09:48;;;;;;;5.20;2.80;;;;;;;;;;108072;293;39631;-42
2023/09/04 04:12:22;;;;;;;5.10;2.70;;;;;;;;;;107975;293;42837;-42
2023/09/04 04:14:58;;;;;;;5.70;2.60;;;;;;;;;;107996;293;42225;-42
2023/09/04 04:17:32;;;;;;;5.40;2.80;;;;;;;;;;108080;293;38726;-42
2023/09/04 04:20:11;;;;;;;6.10;2.80;;;;;;;;;;108010;293;41451;-42
2023/09/04 04:22:47;;;;;;;4.60;2.70;;;;;;;;;;107996;293;42985;-41
2023/09/04 04:25:20;;;;;;;4.90;2.90;;;;;;;;;;108082;293;43380;-42
2023/09/04 04:27:53;;;;;;;5.00;2.70;;;;;;;;;;108061;293;40025;-42
2023/09/04 04:30:27;;;;;;;5.20;2.80;;;;;;;;;;108004;293;39359;-43
2023/09/04 04:33:02;;;;;;;5.00;2.70;;;;;;;;;;108018;293;43094;-42
2023/09/04 04:35:37;;;;;;;5.20;2.80;;;;;;;;;;107948;293;42113;-43
2023/09/04 04:38:10;;;;;;;5.30;2.80;;;;;;;;;;108015;293;38711;-42
2023/09/04 04:40:44;;;;;;;5.30;2.80;;;;;;;;;;107990;293;39604;-42
2023/09/04 04:43:17;;;;;;;5.40;2.80;;;;;;;;;;107959;293;42973;-42
2023/09/04 04:45:52;;;;;;;6.40;3.00;;;;;;;;;;107974;293;42120;-42
2023/09/04 04:48:26;;;;;;;4.40;2.60;;;;;;;;;;108034;293;38841;-42
2023/09/04 04:50:59;;;;;;;5.60;2.90;;;;;;;;;;107994;293;39619;-42
2023/09/04 04:53:33;;;;;;;5.70;2.80;;;;;;;;;;108034;293;42952;-43
2023/09/04 04:56:07;;;;;;;5.80;2.50;;;;;;;;;;107351;293;893204;-43
2023/09/04 04:58:42;;;;;;;4.50;2.80;;;;;;;;;;108007;293;38730;-43
2023/09/04 05:01:16;;;;;;;5.10;2.90;;;;;;;;;;108023;293;39640;-42
2023/09/04 05:03:49;;;;;;;4.80;2.70;;;;;;;;;;107849;293;175575;-42
2023/09/04 05:06:22;;;;;;;4.90;2.50;;;;;;;;;;107973;293;42047;-42
2023/09/04 05:08:56;;;;;;;4.50;2.50;;;;;;;;;;107759;293;329273;-42
2023/09/04 05:11:30;;;;;;;5.60;2.70;;;;;;;;;;107990;293;39868;-42
2023/09/04 05:14:06;;;;;;;5.10;2.50;;;;;;;;;;107930;293;44013;-42
2023/09/04 05:16:39;;;;;;;5.10;2.40;;;;;;;;;;108030;293;42055;-42
2023/09/04 05:19:16;;;;;;;4.90;2.60;;;;;;;;;;108011;293;38736;-42
2023/09/04 05:21:50;;;;;;;5.30;2.40;;;;;;;;;;108021;293;40892;-42
2023/09/04 05:24:31;;;;;;;5.00;2.70;;;;;;;;;;107946;293;42848;-42
2023/09/04 05:27:06;;;;;;;4.60;2.50;;;;;;;;;;107994;293;42160;-42
2023/09/04 05:29:40;;;;;;;5.30;2.40;;;;;;;;;;107958;293;38899;-39
2023/09/04 05:32:13;;;;;;;4.30;2.40;;;;;;;;;;107921;286;39986;-45
2023/09/04 05:34:46;;;;;;;4.70;2.40;;;;;;;;;;107991;286;48425;-43
2023/09/04 05:37:19;;;;;;;4.60;2.50;;;;;;;;;;107893;286;42045;-42
2023/09/04 05:39:55;;;;;;;5.00;2.50;;;;;;;;;;107860;289;38790;-47
2023/09/04 05:42:30;;;;;;;4.90;2.40;;;;;;;;;;107850;292;41129;-43
2023/09/04 05:45:10;;;;;;;4.80;2.60;;;;;;;;;;107790;286;47959;-46
2023/09/04 05:47:46;;;;;;;5.00;2.20;;;;;;;;;;107722;293;175659;-48
2023/09/04 05:50:21;;;;;;;4.30;2.70;;;;;;;;;;107838;286;39857;-43
2023/09/04 05:52:56;;;;;;;4.70;2.40;;;;;;;;;;107811;293;40950;-45
2023/09/04 05:55:29;;;;;;;4.60;2.30;;;;;;;;;;107811;289;49300;-45
2023/09/04 05:58:03;;;;;;;4.70;2.60;;;;;;;;;;107874;293;41776;-41
2023/09/04 06:00:36;;;;;;;4.80;2.40;;;;;;;;;;107830;293;40069;-40
2023/09/04 06:03:12;;;;;;;4.70;2.40;;;;;;;;;;107716;293;175559;-44
2023/09/04 06:05:48;;;;;;;4.80;2.60;;;;;;;;;;107835;284;50419;-44
2023/09/04 06:08:22;;;;;;;4.50;2.40;;;;;;;;;;107850;293;42053;-44
2023/09/04 06:11:02;;;;;;;5.00;2.50;;;;;;;;;;107814;294;39954;-44
2023/09/04 06:13:36;;;;;;;4.60;2.50;;;;;;;;;;107666;294;175610;-44
2023/09/04 06:16:09;;;;;;;4.70;2.40;;;;;;;;;;107826;295;44198;-44
2023/09/04 06:18:43;;;;;;;5.10;2.60;;;;;;;;;;107841;294;43649;-45
2023/09/04 06:21:16;;;;;;;4.50;2.50;;;;;;;;;;107817;294;39046;-44
2023/09/04 06:23:50;;;;;;;4.40;2.40;;;;;;;;;;107796;294;40966;-44
2023/09/04 06:26:29;;;;;;;4.90;2.80;;;;;;;;;;107741;294;44062;-44
2023/09/04 06:29:04;;;;;;;4.30;2.30;;;;;;;;;;107837;294;42046;-44
2023/09/04 06:31:37;;;;;;;5.40;2.70;;;;;;;;;;107847;294;38720;-44
2023/09/04 06:34:12;;;;;;;6.30;2.80;;;;;;;;;;107832;294;39401;-44
2023/09/04 06:36:45;;;;;;;6.00;2.90;;;;;;;;;;107834;295;42844;-44
2023/09/04 06:39:19;;;;;;;6.00;2.70;;;;;;;;;;107782;294;41998;-43
2023/09/04 06:41:55;;;;;;;6.60;2.90;;;;;;;;;;107837;294;38486;-44
2023/09/04 06:44:28;;;;;;;6.40;3.00;;;;;;;;;;107759;295;39634;-44
2023/09/04 06:47:06;;;;;;;5.20;2.70;;;;;;;;;;107854;294;43003;-43
2023/09/04 06:49:42;;;;;;;5.60;2.50;;;;;;;;;;107833;294;43295;-44
2023/09/04 06:52:15;;;;;;;4.90;2.80;;;;;;;;;;107767;294;38749;-43
2023/09/04 06:54:49;;;;;;;5.70;2.90;;;;;;;;;;107848;294;39773;-44
2023/09/04 06:57:22;;;;;;;5.50;2.80;;;;;;;;;;107805;294;42930;-45
2023/09/04 06:59:57;;;;;;;7.40;2.70;;;;;;;;;;107776;287;41795;-43
2023/09/04 07:02:31;;;;;;;6.00;2.60;;;;;;;;;;107828;294;38776;-42
2023/09/04 07:05:07;;;;;;;5.40;2.90;;;;;;;;;;107793;294;39654;-43
2023/09/04 07:07:41;;;;;;;6.70;2.70;;;;;;;;;;107904;292;42971;-44
2023/09/04 07:10:16;;;;;;;5.40;2.70;;;;;;;;;;107849;286;41992;-45
2023/09/04 07:12:54;;;;;;;5.20;2.70;;;;;;;;;;107866;286;38905;-43
2023/09/04 07:15:27;;;;;;;6.20;2.90;;;;;;;;;;107810;293;41011;-45
2023/09/04 07:18:03;;;;;;;6.20;2.80;;;;;;;;;;107875;285;44068;-45
2023/09/04 07:20:36;;;;;;;6.40;2.70;;;;;;;;;;107937;293;42640;-43
2023/09/04 07:23:10;;;;;;;6.20;2.70;;;;;;;;;;107910;293;38774;-46
2023/09/04 07:25:56;;;;;;;5.40;2.80;;;;;;;;;;107839;293;40722;-47
2023/09/04 07:28:30;;;;;;;5.60;2.90;;;;;;;;;;107916;290;44156;-44
2023/09/04 07:31:21;;;;;;;5.50;2.60;;;;;;;;;;107899;293;42221;-45
2023/09/04 07:33:56;;;;;;;6.00;2.90;;;;;;;;;;107867;293;39179;-43
2023/09/04 07:36:32;;;;;;;7.00;3.30;;;;;;;;;;107824;292;39472;-42
2023/09/04 07:39:07;;;;;;;5.50;2.60;;;;;;;;;;107796;293;44151;-43
2023/09/04 07:41:40;;;;;;;7.30;3.40;;;;;;;;;;107835;293;43537;-44
2023/09/04 07:44:14;;;;;;;6.20;2.90;;;;;;;;;;107865;293;38869;-42
2023/09/04 07:46:48;;;;;;;7.00;3.00;;;;;;;;;;107781;293;39729;-42
2023/09/04 07:49:25;;;;;;;5.20;2.80;;;;;;;;;;107812;289;42985;-43
2023/09/04 07:51:59;;;;;;;7.10;3.10;;;;;;;;;;107821;293;43406;-43
2023/09/04 07:54:35;;;;;;;6.00;3.00;;;;;;;;;;107802;293;38772;-43
2023/09/04 07:57:08;;;;;;;5.40;2.90;;;;;;;;;;107787;293;39754;-43
2023/09/04 07:59:42;;;;;;;6.30;2.70;;;;;;;;;;107853;286;42922;-43
2023/09/04 08:02:16;;;;;;;5.10;2.50;;;;;;;;;;107836;286;43338;-43
2023/09/04 08:04:53;;;;;;;6.80;2.70;;;;;;;;;;107784;293;38453;-43
2023/09/04 08:07:26;;;;;;;6.50;2.70;;;;;;;;;;107840;286;39637;-43
2023/09/04 08:09:59;;;;;;;5.00;2.80;;;;;;;;;;107915;293;42841;-43
2023/09/04 08:12:33;;;;;;;6.20;2.70;;;;;;;;;;107895;290;42137;-43
2023/09/04 08:15:10;;;;;;;6.60;2.70;;;;;;;;;;107898;290;38671;-43
2023/09/04 08:17:47;;;;;;;5.80;2.50;;;;;;;;;;107793;293;175614;-43
2023/09/04 08:20:26;;;;;;;4.60;2.50;;;;;;;;;;107933;293;43115;-43
2023/09/04 08:22:59;;;;;;;6.70;2.90;;;;;;;;;;107906;293;41825;-42
2023/09/04 08:25:34;;;;;;;5.20;2.70;;;;;;;;;;107866;293;38682;-43
2023/09/04 08:28:13;;;;;;;5.40;2.60;;;;;;;;;;107877;293;39707;-43
2023/09/04 08:30:52;;;;;;;5.20;2.40;;;;;;;;;;107759;293;175610;-42
2023/09/04 08:33:26;;;;;;;4.90;2.60;;;;;;;;;;107922;293;42039;-44
2023/09/04 08:36:03;;;;;;;5.00;2.50;;;;;;;;;;107896;293;38878;-43
2023/09/04 08:38:38;;;;;;;5.40;2.50;;;;;;;;;;107796;293;45319;-43
2023/09/04 08:41:19;;;;;;;5.70;2.50;;;;;;;;;;107798;293;42796;-43
2023/09/04 08:43:53;;;;;;;5.20;2.60;;;;;;;;;;107862;293;42190;-42
2023/09/04 08:46:28;;;;;;;5.20;2.50;;;;;;;;;;107854;293;38713;-41
2023/09/04 08:49:05;;;;;;;5.50;2.30;;;;;;;;;;107859;293;40952;-41
2023/09/04 08:51:41;;;;;;;5.20;2.40;;;;;;;;;;107730;293;177269;-41
2023/09/04 08:54:16;;;;;;;5.30;2.30;;;;;;;;;;107836;289;42262;-42
2023/09/04 08:56:51;;;;;;;6.10;2.70;;;;;;;;;;107770;293;38742;-43
2023/09/04 08:59:24;;;;;;;4.80;2.40;;;;;;;;;;107742;290;175579;-43
2023/09/04 09:02:03;;;;;;;5.60;2.50;;;;;;;;;;107875;293;42942;-42
2023/09/04 09:04:38;;;;;;;4.30;2.40;;;;;;;;;;107875;293;42214;-41
2023/09/04 09:07:13;;;;;;;4.50;2.50;;;;;;;;;;107804;286;38771;-41
2023/09/04 09:09:51;;;;;;;4.70;2.40;;;;;;;;;;107846;292;39822;-40
2023/09/04 09:12:25;;;;;;;5.50;2.70;;;;;;;;;;107860;293;42545;-41
2023/09/04 09:15:03;;;;;;;5.00;2.50;;;;;;;;;;107811;289;42012;-42
2023/09/04 09:17:52;;;;;;;5.30;2.80;;;;;;;;;;107789;286;38830;-41
2023/09/04 09:20:52;;;;;;;5.80;2.70;;;;;;;;;;107824;289;39664;-46
2023/09/04 09:23:27;;;;;;;4.80;2.40;;;;;;;;;;107848;293;43064;-43
2023/09/04 09:26:02;;;;;;;5.20;2.60;;;;;;;;;;107853;293;42647;-43
2023/09/04 09:28:36;;;;;;;5.20;2.70;;;;;;;;;;107806;289;39847;-43
2023/09/04 09:31:13;;;;;;;4.80;2.30;;;;;;;;;;107871;293;40621;-43
2023/09/04 09:33:50;;;;;;;4.90;2.70;;;;;;;;;;107851;293;44052;-43
2023/09/04 09:36:27;;;;;;;5.10;2.50;;;;;;;;;;107835;292;42010;-43
2023/09/04 09:39:00;;;;;;;4.50;2.50;;;;;;;;;;107803;293;39973;-43
2023/09/04 09:41:36;;;;;;;5.80;2.50;;;;;;;;;;107834;293;41987;-43
2023/09/04 09:44:10;;;;;;;4.80;2.70;;;;;;;;;;107868;293;44025;-43
2023/09/04 09:46:48;;;;;;;4.80;2.50;;;;;;;;;;107851;293;42153;-43
2023/09/04 09:49:22;;;;;;;4.70;2.50;;;;;;;;;;107844;286;40069;-43
2023/09/04 09:51:57;;;;;;;5.00;2.60;;;;;;;;;;107846;293;39740;-43
2023/09/04 09:54:43;;;;;;;5.30;2.70;;;;;;;;;;107847;286;42850;-43
2023/09/04 09:57:20;;;;;;;5.30;2.80;;;;;;;;;;107812;293;42263;-43
2023/09/04 09:59:56;;;;;;;5.70;2.80;;;;;;;;;;107813;293;38622;-43
2023/09/04 10:02:31;;;;;;;5.10;2.80;;;;;;;;;;107839;293;39765;-43
2023/09/04 10:05:12;;;;;;;5.60;2.80;;;;;;;;;;107838;289;43342;-43
2023/09/04 10:07:53;;;;;;;4.30;2.70;;;;;;;;;;107831;293;42229;-43
2023/09/04 10:10:30;;;;;;;5.40;2.90;;;;;;;;;;107800;293;38740;-43
2023/09/04 10:13:16;;;;;;;4.80;2.70;;;;;;;;;;107832;286;39582;-42
2023/09/04 10:15:52;;;;;;;4.60;2.70;;;;;;;;;;107845;293;43642;-43
2023/09/04 10:18:33;;;;;;;5.20;2.50;;;;;;;;;;107807;293;42223;-43
2023/09/04 10:21:10;;;;;;;5.00;2.50;;;;;;;;;;107859;293;46016;-43
2023/09/04 10:23:53;;;;;;;5.10;2.50;;;;;;;;;;107836;293;39683;-43
2023/09/04 10:26:39;;;;;;;4.60;2.90;;;;;;;;;;107846;292;42955;-43
2023/09/04 10:29:19;;;;;;;4.80;2.60;;;;;;;;;;107803;290;42166;-43
2023/09/04 10:31:57;;;;;;;4.30;2.50;;;;;;;;;;107834;293;39002;-43
2023/09/04 10:34:32;;;;;;;4.40;2.50;;;;;;;;;;107841;292;39372;-43
2023/09/04 10:37:06;;;;;;;4.40;2.40;;;;;;;;;;107850;293;42833;-43
2023/09/04 10:39:40;;;;;;;4.30;2.30;;;;;;;;;;107784;293;42026;-43
2023/09/04 10:42:16;;;;;;;4.50;2.50;;;;;;;;;;107865;293;38430;-43
2023/09/04 10:44:56;;;;;;;4.80;2.40;;;;;;;;;;107855;286;40912;-43
2023/09/04 10:47:49;;;;;;;4.70;2.40;;;;;;;;;;107835;293;42953;-44
2023/09/04 10:50:37;;;;;;;4.80;2.40;;;;;;;;;;107829;293;42030;-46
2023/09/04 10:53:12;;;;;;;5.10;2.30;;;;;;;;;;107818;286;38781;-44
2023/09/04 10:56:13;;;;;;;4.40;2.40;;;;;;;;;;107846;293;39791;-43
2023/09/04 10:59:05;;;;;;;4.70;2.40;;;;;;;;;;107765;286;42908;-45
2023/09/04 11:01:40;;;;;;;3.90;2.10;;;;;;;;;;107799;284;41998;-40
2023/09/04 11:04:30;;;;;;;4.50;2.50;;;;;;;;;;107872;292;38496;-41
2023/09/04 11:07:45;;;;;;;4.50;2.40;;;;;;;;;;107844;292;39628;-47
2023/09/04 11:10:42;;;;;;;4.80;2.30;;;;;;;;;;107784;292;42858;-42
2023/09/04 11:13:19;;;;;;;4.70;2.60;;;;;;;;;;107864;289;42215;-43
2023/09/04 11:16:06;;;;;;;4.40;2.30;;;;;;;;;;107705;292;175553;-43
2023/09/04 11:18:44;;;;;;;5.20;2.40;;;;;;;;;;107905;284;39727;-44
2023/09/04 11:21:17;;;;;;;4.70;2.30;;;;;;;;;;107794;292;42815;-46
2023/09/04 11:23:54;;;;;;;4.70;2.40;;;;;;;;;;107860;288;41779;-44
2023/09/04 11:26:35;;;;;;;4.60;2.40;;;;;;;;;;107849;293;38704;-42
2023/09/04 11:29:09;;;;;;;4.10;2.20;;;;;;;;;;107842;288;39589;-45
2023/09/04 11:31:42;;;;;;;4.30;2.20;;;;;;;;;;107815;292;44014;-44
2023/09/04 11:34:31;;;;;;;4.30;2.40;;;;;;;;;;107930;290;42186;-43
2023/09/04 11:37:06;;;;;;;4.50;2.30;;;;;;;;;;107855;288;38770;-45
2023/09/04 11:39:56;;;;;;;4.90;2.10;;;;;;;;;;107851;292;40862;-46
2023/09/04 11:42:38;;;;;;;4.50;2.20;;;;;;;;;;107805;292;50271;-45
2023/09/04 11:45:19;;;;;;;4.20;2.30;;;;;;;;;;107832;292;42921;-41
2023/09/04 11:47:52;;;;;;;4.80;2.50;;;;;;;;;;107855;292;38674;-43
2023/09/04 11:50:26;;;;;;;5.90;2.40;;;;;;;;;;107800;284;39662;-40
2023/09/04 11:53:01;;;;;;;5.10;2.50;;;;;;;;;;107873;286;42821;-44
2023/09/04 11:55:37;;;;;;;4.70;2.70;;;;;;;;;;107861;292;42062;-45
2023/09/04 11:58:15;;;;;;;4.70;2.60;;;;;;;;;;107814;292;38693;-46
2023/09/04 12:00:50;;;;;;;4.60;2.40;;;;;;;;;;107804;286;39626;-45
2023/09/04 12:03:25;;;;;;;5.20;2.40;;;;;;;;;;107855;288;43088;-46
2023/09/04 12:06:00;;;;;;;5.00;2.40;;;;;;;;;;107844;289;42015;-46
2023/09/04 12:08:34;;;;;;;4.50;2.40;;;;;;;;;;107879;284;38671;-47
2023/09/04 12:11:10;;;;;;;5.10;2.30;;;;;;;;;;107675;292;175972;-44
2023/09/04 12:13:45;;;;;;;4.50;2.30;;;;;;;;;;107829;284;42836;-47
2023/09/04 12:16:26;;;;;;;4.80;2.40;;;;;;;;;;107823;289;42212;-44
2023/09/04 12:19:03;;;;;;;5.10;2.30;;;;;;;;;;107836;284;38975;-44
2023/09/04 12:21:43;;;;;;;4.20;2.20;;;;;;;;;;107817;288;39775;-46
2023/09/04 12:24:18;;;;;;;4.90;2.20;;;;;;;;;;107849;289;42846;-44
2023/09/04 12:26:53;;;;;;;3.80;2.00;;;;;;;;;;107878;292;42531;-47
2023/09/04 12:29:36;;;;;;;4.60;2.20;;;;;;;;;;107820;289;40069;-44
2023/09/04 12:32:11;;;;;;;4.00;1.90;;;;;;;;;;107809;286;39694;-42
2023/09/04 12:34:47;;;;;;;4.30;1.90;;;;;;;;;;107833;289;44013;-47
2023/09/04 12:37:22;;;;;;;4.80;1.80;;;;;;;;;;107852;286;41974;-49
2023/09/04 12:39:58;;;;;;;4.50;1.90;;;;;;;;;;107878;284;40269;-42
2023/09/04 12:42:31;;;;;;;4.20;2.20;;;;;;;;;;107784;292;39836;-45
2023/09/04 12:45:07;;;;;;;3.70;1.90;;;;;;;;;;107815;292;42600;-45
2023/09/04 12:47:45;;;;;;;3.70;2.00;;;;;;;;;;107852;284;42431;-41
2023/09/04 12:50:20;;;;;;;5.40;2.30;;;;;;;;;;107821;289;38886;-42
2023/09/04 12:52:54;;;;;;;3.90;2.20;;;;;;;;;;107833;284;40885;-42
2023/09/04 12:55:27;;;;;;;3.80;2.00;;;;;;;;;;107837;292;42791;-44
2023/09/04 12:58:13;;;;;;;5.70;2.10;;;;;;;;;;107834;292;42599;-42
2023/09/04 13:00:55;;;;;;;4.60;2.20;;;;;;;;;;107863;284;39620;-44
2023/09/04 13:03:28;;;;;;;4.30;2.30;;;;;;;;;;107773;292;39517;-45
2023/09/04 13:06:04;;;;;;;5.10;2.20;;;;;;;;;;107844;292;42565;-44
2023/09/04 13:08:38;;;;;;;4.60;2.30;;;;;;;;;;107518;286;344232;-43
2023/09/04 13:11:16;;;;;;;4.70;2.40;;;;;;;;;;107790;286;38880;-45
2023/09/04 13:13:52;;;;;;;8.10;2.70;;;;;;;;;;107809;284;39825;-43
2023/09/04 13:16:26;;;;;;;5.10;2.30;;;;;;;;;;107789;286;42981;-41
2023/09/04 13:19:00;;;;;;;4.80;2.40;;;;;;;;;;107877;286;43270;-40
2023/09/04 13:21:37;;;;;;;4.50;2.40;;;;;;;;;;107812;292;38955;-40
2023/09/04 13:24:10;;;;;;;4.70;2.60;;;;;;;;;;107803;284;42260;-40
2023/09/04 13:26:47;;;;;;;4.50;2.30;;;;;;;;;;107808;292;44183;-43
2023/09/04 13:29:20;;;;;;;5.00;2.30;;;;;;;;;;107808;292;43497;-42
2023/09/04 13:31:56;;;;;;;4.00;2.30;;;;;;;;;;107828;288;39015;-45
2023/09/04 13:34:33;;;;;;;4.30;2.30;;;;;;;;;;107806;292;40865;-41
2023/09/04 13:37:07;;;;;;;5.70;2.40;;;;;;;;;;107740;286;44023;-41
2023/09/04 13:39:45;;;;;;;4.70;2.40;;;;;;;;;;107801;285;42279;-44
2023/09/04 13:42:20;;;;;;;4.60;2.40;;;;;;;;;;107858;284;38846;-43
2023/09/04 13:44:57;;;;;;;4.60;2.20;;;;;;;;;;107843;292;39634;-43
2023/09/04 13:47:30;;;;;;;4.50;2.30;;;;;;;;;;107856;289;43951;-41
2023/09/04 13:50:05;;;;;;;4.50;2.30;;;;;;;;;;107851;292;43243;-40
2023/09/04 13:52:41;;;;;;;4.90;2.40;;;;;;;;;;107886;286;38895;-46
2023/09/04 13:55:18;;;;;;;4.40;2.40;;;;;;;;;;107774;289;45284;-44
2023/09/04 13:57:55;;;;;;;5.10;2.50;;;;;;;;;;107868;286;42938;-45
2023/09/04 14:00:30;;;;;;;5.00;2.40;;;;;;;;;;107911;292;41835;-46
2023/09/04 14:03:05;;;;;;;4.50;2.40;;;;;;;;;;107852;292;38539;-45
2023/09/04 14:05:44;;;;;;;5.70;2.40;;;;;;;;;;107342;293;147940;-45
2023/09/04 14:08:22;;;;;;;4.90;2.50;;;;;;;;;;107612;297;42522;-43
2023/09/04 14:10:56;;;;;;;4.50;2.40;;;;;;;;;;107718;293;42091;-42
2023/09/04 14:13:33;;;;;;;6.00;2.70;;;;;;;;;;107668;297;38817;-43
2023/09/04 14:16:06;;;;;;;4.70;2.30;;;;;;;;;;107728;297;39818;-44
2023/09/04 14:18:40;;;;;;;4.60;2.20;;;;;;;;;;107722;297;44332;-41
2023/09/04 14:21:16;;;;;;;5.30;2.50;;;;;;;;;;107716;297;41811;-41
2023/09/04 14:23:51;;;;;;;4.70;2.60;;;;;;;;;;107676;297;40020;-44
2023/09/04 14:26:31;;;;;;;4.70;2.60;;;;;;;;;;107691;298;39343;-43
2023/09/04 14:29:06;;;;;;;6.00;2.70;;;;;;;;;;107689;294;43138;-43
2023/09/04 14:31:43;;;;;;;6.90;2.90;;;;;;;;;;107693;297;41834;-43
2023/09/04 14:34:24;;;;;;;7.90;3.40;;;;;;;;;;107717;294;38685;-43
2023/09/04 14:37:02;;;;;;;8.30;3.30;;;;;;;;;;107697;298;40141;-44
2023/09/04 14:40:00;;;;;;;8.50;3.40;;;;;;;;;;107692;293;42830;-43
2023/09/04 14:42:35;;;;;;;6.20;3.40;;;;;;;;;;107658;297;41854;-42
2023/09/04 14:45:15;;;;;;;5.70;3.10;;;;;;;;;;107655;289;38487;-41
2023/09/04 14:47:53;;;;;;;7.40;3.30;;;;;;;;;;107684;294;39674;-43
2023/09/04 14:50:29;;;;;;;6.90;3.60;;;;;;;;;;107690;290;42961;-42
2023/09/04 14:53:03;;;;;;;6.50;3.30;;;;;;;;;;107679;290;42140;-41
2023/09/04 14:55:39;;;;;;;7.90;3.80;;;;;;;;;;107670;290;39706;-46
2023/09/04 14:58:14;;;;;;;7.50;3.80;;;;;;;;;;107688;290;39587;-47
2023/09/04 15:00:50;;;;;;;8.10;3.90;;;;;;;;;;107697;293;42983;-43
2023/09/04 15:03:24;;;;;;;7.90;3.90;;;;;;;;;;107705;290;43305;-45
2023/09/04 15:06:05;;;;;;;7.80;3.60;;;;;;;;;;107652;290;38743;-49
2023/09/04 15:08:40;;;;;;;7.30;3.60;;;;;;;;;;107718;290;41065;-43
2023/09/04 15:11:19;;;;;;;7.90;3.90;;;;;;;;;;107697;297;42756;-43
2023/09/04 15:13:53;;;;;;;8.00;3.80;;;;;;;;;;107721;290;41861;-40
2023/09/04 15:16:26;;;;;;;7.10;3.70;;;;;;;;;;107645;297;38489;-40
2023/09/04 15:19:04;;;;;;;7.60;3.50;;;;;;;;;;107710;297;39455;-42
2023/09/04 15:21:38;;;;;;;7.90;3.50;;;;;;;;;;107734;297;42853;-43
2023/09/04 15:24:11;;;;;;;7.90;3.60;;;;;;;;;;107710;290;44351;-42
2023/09/04 15:26:47;;;;;;;7.90;3.60;;;;;;;;;;107696;293;38852;-42
2023/09/04 15:29:22;;;;;;;7.00;3.50;;;;;;;;;;107693;290;39756;-42
2023/09/04 15:31:58;;;;;;;7.30;3.70;;;;;;;;;;107722;290;43402;-41
2023/09/04 15:34:37;;;;;;;7.70;3.30;;;;;;;;;;107684;298;42162;-42